sensor_id;sensor_type;location;lat;lon;timestamp;temperature;humidity
29007;DHT22;16104;48.642;9.008;2023-08-01T01:03:28;20.60;59.60
29007;DHT22;16104;48.642;9.008;2023-08-01T01:08:23;20.60;59.70
29007;DHT22;16104;48.642;9.008;2023-08-01T01:13:19;20.70;60.00
29007;DHT22;16104;48.642;9.008;2023-08-01T02:04:03;20.50;61.20
29007;DHT22;16104;48.642;9.008;2023-08-01T02:08:58;20.40;61.20
29007;DHT22;16104;48.642;9.008;2023-08-01T02:13:57;20.50;61.30
29007;DHT22;16104;48.642;9.008;2023-08-01T03:04:41;20.50;61.40
29007;DHT22;16104;48.642;9.008;2023-08-01T03:09:36;20.60;61.50
29007;DHT22;16104;48.642;9.008;2023-08-01T03:14:32;20.60;61.40
29007;DHT22;16104;48.642;9.008;2023-08-01T03:19:27;20.60;61.30
29007;DHT22;16104;48.642;9.008;2023-08-01T03:24:23;20.60;61.30
29007;DHT22;16104;48.642;9.008;2023-08-01T03:29:18;20.70;61.20
29007;DHT22;16104;48.642;9.008;2023-08-01T03:34:14;20.70;61.30
29007;DHT22;16104;48.642;9.008;2023-08-01T03:39:09;20.70;61.00
29007;DHT22;16104;48.642;9.008;2023-08-01T03:44:05;20.80;61.00
29007;DHT22;16104;48.642;9.008;2023-08-01T03:49:00;20.80;61.00
29007;DHT22;16104;48.642;9.008;2023-08-01T03:53:56;20.80;61.90
29007;DHT22;16104;48.642;9.008;2023-08-01T03:58:51;20.80;61.20
29007;DHT22;16104;48.642;9.008;2023-08-01T04:03:47;20.80;61.10
29007;DHT22;16104;48.642;9.008;2023-08-01T04:08:42;20.80;61.20
29007;DHT22;16104;48.642;9.008;2023-08-01T04:13:38;20.80;61.20
29007;DHT22;16104;48.642;9.008;2023-08-01T04:18:33;20.80;61.30
29007;DHT22;16104;48.642;9.008;2023-08-01T04:23:29;20.80;61.30
29007;DHT22;16104;48.642;9.008;2023-08-01T04:28:25;20.80;61.20
29007;DHT22;16104;48.642;9.008;2023-08-01T04:33:21;20.80;61.40
29007;DHT22;16104;48.642;9.008;2023-08-01T04:38:16;20.80;61.30
29007;DHT22;16104;48.642;9.008;2023-08-01T04:43:13;20.80;61.30
29007;DHT22;16104;48.642;9.008;2023-08-01T04:48:08;20.80;61.30
29007;DHT22;16104;48.642;9.008;2023-08-01T04:53:04;20.70;61.20
29007;DHT22;16104;48.642;9.008;2023-08-01T04:58:01;20.70;61.10
29007;DHT22;16104;48.642;9.008;2023-08-01T05:02:57;20.70;61.00
29007;DHT22;16104;48.642;9.008;2023-08-01T05:07:52;20.70;60.80
29007;DHT22;16104;48.642;9.008;2023-08-01T05:12:47;20.70;60.30
29007;DHT22;16104;48.642;9.008;2023-08-01T05:17:43;20.70;60.30
29007;DHT22;16104;48.642;9.008;2023-08-01T05:22:39;20.80;60.20
29007;DHT22;16104;48.642;9.008;2023-08-01T05:27:34;20.70;60.00
29007;DHT22;16104;48.642;9.008;2023-08-01T05:32:30;20.80;60.00
29007;DHT22;16104;48.642;9.008;2023-08-01T05:37:25;20.80;59.70
29007;DHT22;16104;48.642;9.008;2023-08-01T05:42:21;20.80;59.50
29007;DHT22;16104;48.642;9.008;2023-08-01T05:47:16;20.80;59.40
29007;DHT22;16104;48.642;9.008;2023-08-01T05:52:12;20.90;59.30
29007;DHT22;16104;48.642;9.008;2023-08-01T05:57:07;20.90;59.30
29007;DHT22;16104;48.642;9.008;2023-08-01T06:02:03;20.90;59.30
29007;DHT22;16104;48.642;9.008;2023-08-01T06:06:59;20.90;59.20
29007;DHT22;16104;48.642;9.008;2023-08-01T06:11:54;21.00;59.20
29007;DHT22;16104;48.642;9.008;2023-08-01T06:16:50;21.00;59.10
29007;DHT22;16104;48.642;9.008;2023-08-01T06:21:45;21.00;59.00
29007;DHT22;16104;48.642;9.008;2023-08-01T06:26:41;21.00;58.90
29007;DHT22;16104;48.642;9.008;2023-08-01T06:31:36;21.00;58.90
29007;DHT22;16104;48.642;9.008;2023-08-01T06:36:32;21.00;58.70
29007;DHT22;16104;48.642;9.008;2023-08-01T06:41:27;21.00;58.70
29007;DHT22;16104;48.642;9.008;2023-08-01T06:46:23;21.00;58.50
29007;DHT22;16104;48.642;9.008;2023-08-01T06:51:18;21.00;58.60
29007;DHT22;16104;48.642;9.008;2023-08-01T06:56:14;21.00;58.60
29007;DHT22;16104;48.642;9.008;2023-08-01T07:01:10;20.90;58.60
29007;DHT22;16104;48.642;9.008;2023-08-01T07:06:05;20.90;58.50
29007;DHT22;16104;48.642;9.008;2023-08-01T07:11:01;21.00;58.40
29007;DHT22;16104;48.642;9.008;2023-08-01T07:15:58;21.00;58.90
29007;DHT22;16104;48.642;9.008;2023-08-01T07:21:00;21.00;58.50
29007;DHT22;16104;48.642;9.008;2023-08-01T07:25:56;21.00;58.70
29007;DHT22;16104;48.642;9.008;2023-08-01T07:31:02;21.00;58.70
29007;DHT22;16104;48.642;9.008;2023-08-01T07:35:58;20.90;58.80
29007;DHT22;16104;48.642;9.008;2023-08-01T07:40:55;20.90;59.00
29007;DHT22;16104;48.642;9.008;2023-08-01T07:45:56;20.90;59.50
29007;DHT22;16104;48.642;9.008;2023-08-01T07:50:51;20.80;60.50
29007;DHT22;16104;48.642;9.008;2023-08-01T07:55:47;20.70;60.40
29007;DHT22;16104;48.642;9.008;2023-08-01T08:00:42;20.70;61.00
29007;DHT22;16104;48.642;9.008;2023-08-01T08:05:38;20.60;61.40
29007;DHT22;16104;48.642;9.008;2023-08-01T08:10:33;20.50;61.90
29007;DHT22;16104;48.642;9.008;2023-08-01T08:15:29;20.40;62.20
29007;DHT22;16104;48.642;9.008;2023-08-01T08:20:28;20.30;62.70
29007;DHT22;16104;48.642;9.008;2023-08-01T08:25:24;20.20;63.10
29007;DHT22;16104;48.642;9.008;2023-08-01T08:30:20;20.10;63.40
29007;DHT22;16104;48.642;9.008;2023-08-01T08:35:15;20.10;64.20
29007;DHT22;16104;48.642;9.008;2023-08-01T08:40:12;20.00;64.60
29007;DHT22;16104;48.642;9.008;2023-08-01T08:45:08;20.00;65.40
29007;DHT22;16104;48.642;9.008;2023-08-01T08:50:06;20.10;65.60
29007;DHT22;16104;48.642;9.008;2023-08-01T08:55:02;20.10;65.70
29007;DHT22;16104;48.642;9.008;2023-08-01T08:59:58;20.10;66.20
29007;DHT22;16104;48.642;9.008;2023-08-01T09:04:56;20.10;66.40
29007;DHT22;16104;48.642;9.008;2023-08-01T09:09:52;20.10;66.50
29007;DHT22;16104;48.642;9.008;2023-08-01T09:14:50;20.20;66.70
29007;DHT22;16104;48.642;9.008;2023-08-01T09:19:46;20.20;66.90
29007;DHT22;16104;48.642;9.008;2023-08-01T09:24:52;20.30;67.00
29007;DHT22;16104;48.642;9.008;2023-08-01T09:29:47;20.40;67.50
29007;DHT22;16104;48.642;9.008;2023-08-01T09:34:43;20.40;66.70
29007;DHT22;16104;48.642;9.008;2023-08-01T09:39:39;20.40;66.70
29007;DHT22;16104;48.642;9.008;2023-08-01T09:44:35;20.50;66.80
29007;DHT22;16104;48.642;9.008;2023-08-01T09:49:31;20.50;66.80
29007;DHT22;16104;48.642;9.008;2023-08-01T09:54:26;20.50;67.30
29007;DHT22;16104;48.642;9.008;2023-08-01T09:59:24;20.60;67.30
29007;DHT22;16104;48.642;9.008;2023-08-01T10:04:26;20.60;67.30
29007;DHT22;16104;48.642;9.008;2023-08-01T10:09:22;20.60;67.30
29007;DHT22;16104;48.642;9.008;2023-08-01T10:14:21;20.60;67.00
29007;DHT22;16104;48.642;9.008;2023-08-01T10:19:17;20.70;67.60
29007;DHT22;16104;48.642;9.008;2023-08-01T10:24:14;20.70;67.40
29007;DHT22;16104;48.642;9.008;2023-08-01T10:29:10;20.80;67.40
29007;DHT22;16104;48.642;9.008;2023-08-01T10:34:12;20.90;67.40
29007;DHT22;16104;48.642;9.008;2023-08-01T10:39:08;20.90;67.50
29007;DHT22;16104;48.642;9.008;2023-08-01T10:44:14;21.00;67.90
29007;DHT22;16104;48.642;9.008;2023-08-01T10:49:10;21.20;68.30
29007;DHT22;16104;48.642;9.008;2023-08-01T10:54:06;21.40;68.20
29007;DHT22;16104;48.642;9.008;2023-08-01T10:59:05;21.60;68.20
29007;DHT22;16104;48.642;9.008;2023-08-01T11:04:01;21.80;67.40
29007;DHT22;16104;48.642;9.008;2023-08-01T11:08:56;22.10;64.90
29007;DHT22;16104;48.642;9.008;2023-08-01T11:13:52;22.30;62.50
29007;DHT22;16104;48.642;9.008;2023-08-01T11:18:48;22.50;61.90
29007;DHT22;16104;48.642;9.008;2023-08-01T11:23:44;22.60;60.40
29007;DHT22;16104;48.642;9.008;2023-08-01T11:28:39;22.70;59.20
29007;DHT22;16104;48.642;9.008;2023-08-01T11:33:35;22.80;57.70
29007;DHT22;16104;48.642;9.008;2023-08-01T11:38:33;22.90;58.20
29007;DHT22;16104;48.642;9.008;2023-08-01T11:43:42;23.10;57.00
29007;DHT22;16104;48.642;9.008;2023-08-01T11:48:38;23.20;55.60
29007;DHT22;16104;48.642;9.008;2023-08-01T11:53:34;23.40;55.40
29007;DHT22;16104;48.642;9.008;2023-08-01T11:58:41;23.40;55.20
29007;DHT22;16104;48.642;9.008;2023-08-01T12:03:48;23.50;54.30
29007;DHT22;16104;48.642;9.008;2023-08-01T12:08:46;23.60;53.40
29007;DHT22;16104;48.642;9.008;2023-08-01T12:13:41;23.70;53.30
29007;DHT22;16104;48.642;9.008;2023-08-01T12:18:39;23.90;53.60
29007;DHT22;16104;48.642;9.008;2023-08-01T12:23:36;24.00;51.80
29007;DHT22;16104;48.642;9.008;2023-08-01T12:28:31;24.20;52.00
29007;DHT22;16104;48.642;9.008;2023-08-01T12:33:27;24.40;51.60
29007;DHT22;16104;48.642;9.008;2023-08-01T12:38:22;24.70;51.30
29007;DHT22;16104;48.642;9.008;2023-08-01T12:43:18;25.00;50.10
29007;DHT22;16104;48.642;9.008;2023-08-01T12:48:14;25.20;49.60
29007;DHT22;16104;48.642;9.008;2023-08-01T12:53:09;25.50;48.90
29007;DHT22;16104;48.642;9.008;2023-08-01T12:58:06;25.70;48.30
29007;DHT22;16104;48.642;9.008;2023-08-01T13:03:02;25.90;47.90
29007;DHT22;16104;48.642;9.008;2023-08-01T13:07:58;26.10;47.70
29007;DHT22;16104;48.642;9.008;2023-08-01T13:12:53;26.30;47.60
29007;DHT22;16104;48.642;9.008;2023-08-01T13:17:49;26.60;46.50
29007;DHT22;16104;48.642;9.008;2023-08-01T13:22:50;26.70;45.30
29007;DHT22;16104;48.642;9.008;2023-08-01T13:27:46;26.70;44.00
29007;DHT22;16104;48.642;9.008;2023-08-01T13:32:41;26.70;46.00
29007;DHT22;16104;48.642;9.008;2023-08-01T13:37:37;26.90;45.10
29007;DHT22;16104;48.642;9.008;2023-08-01T13:42:32;27.10;44.00
29007;DHT22;16104;48.642;9.008;2023-08-01T13:47:28;27.20;43.30
29007;DHT22;16104;48.642;9.008;2023-08-01T13:52:24;27.30;42.70
29007;DHT22;16104;48.642;9.008;2023-08-01T13:57:19;27.40;42.40
29007;DHT22;16104;48.642;9.008;2023-08-01T14:02:14;27.30;41.60
29007;DHT22;16104;48.642;9.008;2023-08-01T14:07:10;27.20;41.40
29007;DHT22;16104;48.642;9.008;2023-08-01T14:12:06;27.20;41.40
29007;DHT22;16104;48.642;9.008;2023-08-01T14:17:02;27.10;41.20
29007;DHT22;16104;48.642;9.008;2023-08-01T14:21:57;27.00;41.00
29007;DHT22;16104;48.642;9.008;2023-08-01T14:26:53;26.90;41.00
29007;DHT22;16104;48.642;9.008;2023-08-01T14:31:51;26.90;41.10
29007;DHT22;16104;48.642;9.008;2023-08-01T14:36:46;26.90;41.40
29007;DHT22;16104;48.642;9.008;2023-08-01T14:41:42;26.90;41.70
29007;DHT22;16104;48.642;9.008;2023-08-01T14:46:37;27.10;41.60
29007;DHT22;16104;48.642;9.008;2023-08-01T14:51:33;27.20;41.80
29007;DHT22;16104;48.642;9.008;2023-08-01T14:56:29;27.20;40.70
29007;DHT22;16104;48.642;9.008;2023-08-01T15:01:25;27.10;40.50
29007;DHT22;16104;48.642;9.008;2023-08-01T15:06:20;26.90;40.20
29007;DHT22;16104;48.642;9.008;2023-08-01T15:11:16;26.70;40.50
29007;DHT22;16104;48.642;9.008;2023-08-01T15:16:11;26.60;41.60
29007;DHT22;16104;48.642;9.008;2023-08-01T15:21:07;26.50;41.30
29007;DHT22;16104;48.642;9.008;2023-08-01T15:26:02;26.40;40.70
29007;DHT22;16104;48.642;9.008;2023-08-01T15:31:02;26.40;40.70
29007;DHT22;16104;48.642;9.008;2023-08-01T15:36:00;26.30;41.30
29007;DHT22;16104;48.642;9.008;2023-08-01T15:40:56;26.30;41.00
29007;DHT22;16104;48.642;9.008;2023-08-01T15:45:52;26.30;41.20
29007;DHT22;16104;48.642;9.008;2023-08-01T15:50:47;26.20;41.30
29007;DHT22;16104;48.642;9.008;2023-08-01T15:55:43;26.10;41.60
29007;DHT22;16104;48.642;9.008;2023-08-01T16:00:38;25.90;41.70
29007;DHT22;16104;48.642;9.008;2023-08-01T16:05:34;25.70;42.00
29007;DHT22;16104;48.642;9.008;2023-08-01T16:10:29;25.50;42.00
29007;DHT22;16104;48.642;9.008;2023-08-01T16:15:25;25.30;42.10
29007;DHT22;16104;48.642;9.008;2023-08-01T16:20:20;25.20;41.80
29007;DHT22;16104;48.642;9.008;2023-08-01T16:25:16;25.00;41.20
29007;DHT22;16104;48.642;9.008;2023-08-01T16:30:11;24.90;41.40
29007;DHT22;16104;48.642;9.008;2023-08-01T16:35:07;24.80;41.10
29007;DHT22;16104;48.642;9.008;2023-08-01T16:40:03;24.70;41.50
29007;DHT22;16104;48.642;9.008;2023-08-01T16:44:59;24.70;42.30
29007;DHT22;16104;48.642;9.008;2023-08-01T16:49:55;24.70;42.60
29007;DHT22;16104;48.642;9.008;2023-08-01T16:54:52;24.70;43.00
29007;DHT22;16104;48.642;9.008;2023-08-01T16:59:48;24.80;42.20
29007;DHT22;16104;48.642;9.008;2023-08-01T17:04:43;24.80;42.20
29007;DHT22;16104;48.642;9.008;2023-08-01T17:09:39;24.80;42.00
29007;DHT22;16104;48.642;9.008;2023-08-01T17:14:34;24.80;42.20
29007;DHT22;16104;48.642;9.008;2023-08-01T17:19:30;24.90;42.40
29007;DHT22;16104;48.642;9.008;2023-08-01T17:24:25;24.90;42.30
29007;DHT22;16104;48.642;9.008;2023-08-01T17:29:21;25.00;42.00
29007;DHT22;16104;48.642;9.008;2023-08-01T17:34:16;25.10;41.80
29007;DHT22;16104;48.642;9.008;2023-08-01T17:39:12;25.20;41.90
29007;DHT22;16104;48.642;9.008;2023-08-01T17:44:07;25.20;41.70
29007;DHT22;16104;48.642;9.008;2023-08-01T17:49:04;25.30;41.60
29007;DHT22;16104;48.642;9.008;2023-08-01T17:53:59;25.20;41.20
29007;DHT22;16104;48.642;9.008;2023-08-01T17:58:55;25.10;41.20
29007;DHT22;16104;48.642;9.008;2023-08-01T18:03:51;25.00;41.30
29007;DHT22;16104;48.642;9.008;2023-08-01T18:08:46;24.90;41.30
29007;DHT22;16104;48.642;9.008;2023-08-01T18:13:43;24.70;41.30
29007;DHT22;16104;48.642;9.008;2023-08-01T18:18:39;24.50;41.30
29007;DHT22;16104;48.642;9.008;2023-08-01T18:23:35;24.30;41.20
29007;DHT22;16104;48.642;9.008;2023-08-01T18:28:32;24.10;41.40
29007;DHT22;16104;48.642;9.008;2023-08-01T18:33:27;23.90;41.70
29007;DHT22;16104;48.642;9.008;2023-08-01T18:38:23;23.70;42.00
29007;DHT22;16104;48.642;9.008;2023-08-01T18:43:19;23.60;42.40
29007;DHT22;16104;48.642;9.008;2023-08-01T18:48:14;23.40;42.80
29007;DHT22;16104;48.642;9.008;2023-08-01T18:53:09;23.20;43.10
29007;DHT22;16104;48.642;9.008;2023-08-01T18:58:05;23.10;43.30
29007;DHT22;16104;48.642;9.008;2023-08-01T19:03:00;22.90;43.60
29007;DHT22;16104;48.642;9.008;2023-08-01T19:07:56;22.80;43.90
29007;DHT22;16104;48.642;9.008;2023-08-01T19:12:52;22.70;44.30
29007;DHT22;16104;48.642;9.008;2023-08-01T19:17:47;22.50;44.40
29007;DHT22;16104;48.642;9.008;2023-08-01T19:22:43;22.40;44.80
29007;DHT22;16104;48.642;9.008;2023-08-01T19:27:39;22.30;45.10
29007;DHT22;16104;48.642;9.008;2023-08-01T19:32:35;22.20;45.30
29007;DHT22;16104;48.642;9.008;2023-08-01T19:37:30;22.10;45.50
29007;DHT22;16104;48.642;9.008;2023-08-01T19:42:26;22.10;45.70
29007;DHT22;16104;48.642;9.008;2023-08-01T19:47:21;21.90;45.80
29007;DHT22;16104;48.642;9.008;2023-08-01T19:52:17;21.90;46.00
29007;DHT22;16104;48.642;9.008;2023-08-01T19:57:13;21.90;46.30
29007;DHT22;16104;48.642;9.008;2023-08-01T20:02:09;21.80;46.30
29007;DHT22;16104;48.642;9.008;2023-08-01T20:07:04;21.80;46.50
29007;DHT22;16104;48.642;9.008;2023-08-01T20:12:00;21.70;46.60
29007;DHT22;16104;48.642;9.008;2023-08-01T20:16:55;21.60;46.70
29007;DHT22;16104;48.642;9.008;2023-08-01T20:21:51;21.60;47.00
29007;DHT22;16104;48.642;9.008;2023-08-01T20:26:49;21.50;47.20
29007;DHT22;16104;48.642;9.008;2023-08-01T20:31:44;21.50;47.40
29007;DHT22;16104;48.642;9.008;2023-08-01T20:36:40;21.40;47.50
29007;DHT22;16104;48.642;9.008;2023-08-01T20:41:36;21.20;47.60
29007;DHT22;16104;48.642;9.008;2023-08-01T20:46:32;21.20;47.90
29007;DHT22;16104;48.642;9.008;2023-08-01T20:51:27;21.10;48.10
29007;DHT22;16104;48.642;9.008;2023-08-01T20:56:23;21.00;48.20
29007;DHT22;16104;48.642;9.008;2023-08-01T21:01:18;20.90;48.40
29007;DHT22;16104;48.642;9.008;2023-08-01T21:06:14;20.80;48.50
29007;DHT22;16104;48.642;9.008;2023-08-01T21:11:11;20.70;48.70
29007;DHT22;16104;48.642;9.008;2023-08-01T21:16:14;20.60;48.90
29007;DHT22;16104;48.642;9.008;2023-08-01T21:21:11;20.60;49.30
29007;DHT22;16104;48.642;9.008;2023-08-01T21:26:07;20.50;49.40
29007;DHT22;16104;48.642;9.008;2023-08-01T21:31:03;20.40;49.60
29007;DHT22;16104;48.642;9.008;2023-08-01T21:36:00;20.40;49.80
29007;DHT22;16104;48.642;9.008;2023-08-01T21:40:55;20.30;50.00
29007;DHT22;16104;48.642;9.008;2023-08-01T21:45:55;20.20;50.10
29007;DHT22;16104;48.642;9.008;2023-08-01T21:50:51;20.10;50.50
29007;DHT22;16104;48.642;9.008;2023-08-01T21:55:47;20.00;50.40
29007;DHT22;16104;48.642;9.008;2023-08-01T22:00:43;20.00;50.60
29007;DHT22;16104;48.642;9.008;2023-08-01T22:05:39;19.90;50.60
29007;DHT22;16104;48.642;9.008;2023-08-01T22:10:35;19.80;50.90
29007;DHT22;16104;48.642;9.008;2023-08-01T22:15:30;19.80;51.00
29007;DHT22;16104;48.642;9.008;2023-08-01T22:20:26;19.70;51.30
29007;DHT22;16104;48.642;9.008;2023-08-01T22:25:22;19.60;51.60
29007;DHT22;16104;48.642;9.008;2023-08-01T22:30:17;19.50;51.70
29007;DHT22;16104;48.642;9.008;2023-08-01T22:35:13;19.50;51.90
29007;DHT22;16104;48.642;9.008;2023-08-01T22:40:08;19.40;51.90
29007;DHT22;16104;48.642;9.008;2023-08-01T22:45:05;19.40;52.30
29007;DHT22;16104;48.642;9.008;2023-08-01T22:50:00;19.40;52.50
29007;DHT22;16104;48.642;9.008;2023-08-01T22:54:56;19.30;52.50
29007;DHT22;16104;48.642;9.008;2023-08-01T22:59:52;19.30;52.70
29007;DHT22;16104;48.642;9.008;2023-08-01T23:04:47;19.20;52.70
29007;DHT22;16104;48.642;9.008;2023-08-01T23:09:43;19.20;52.90
29007;DHT22;16104;48.642;9.008;2023-08-01T23:14:38;19.20;53.10
29007;DHT22;16104;48.642;9.008;2023-08-01T23:19:34;19.10;53.10
29007;DHT22;16104;48.642;9.008;2023-08-01T23:24:29;19.10;53.40
29007;DHT22;16104;48.642;9.008;2023-08-01T23:29:25;19.10;53.60
29007;DHT22;16104;48.642;9.008;2023-08-01T23:34:20;19.00;53.60
29007;DHT22;16104;48.642;9.008;2023-08-01T23:39:16;19.10;53.80
29007;DHT22;16104;48.642;9.008;2023-08-01T23:44:11;19.00;54.00
29007;DHT22;16104;48.642;9.008;2023-08-01T23:49:07;19.10;54.20
29007;DHT22;16104;48.642;9.008;2023-08-01T23:54:02;19.10;54.40
29007;DHT22;16104;48.642;9.008;2023-08-01T23:58:58;19.10;54.40
